Time;durP1;ratioP1;P1;durP2;ratioP2;P2;SDS_P1;SDS_P2;PMS_P1;PMS_P2;Temp;Humidity;BMP_temperature;BMP_pressure;BME280_temperature;BME280_humidity;BME280_pressure;Samples;Min_cycle;Max_cycle;Signal;HPM_P1;HPM_P2
2020/10/26 00:00:40;;;;;;;2.5;1.4;;;;;;;;;;;;;
2020/10/26 00:03:05;;;;;;;2.5;1.1;;;;;;;;;;;;;
2020/10/26 00:05:31;;;;;;;3.7;1;;;;;;;;;;;;;
2020/10/26 00:07:56;;;;;;;0.9;0.7;;;;;;;;;;;;;
2020/10/26 00:10:23;;;;;;;0.6;0.5;;;;;;;;;;;;;
2020/10/26 00:12:49;;;;;;;1.3;1;;;;;;;;;;;;;
2020/10/26 00:15:16;;;;;;;1.5;0.8;;;;;;;;;;;;;
2020/10/26 00:17:42;;;;;;;0.4;0.4;;;;;;;;;;;;;
2020/10/26 00:20:07;;;;;;;0.9;0.8;;;;;;;;;;;;;
2020/10/26 00:22:32;;;;;;;0.9;0.7;;;;;;;;;;;;;
2020/10/26 00:24:58;;;;;;;4.7;0.7;;;;;;;;;;;;;
2020/10/26 00:27:22;;;;;;;2.5;0.8;;;;;;;;;;;;;
2020/10/26 00:29:48;;;;;;;0.4;0.4;;;;;;;;;;;;;
2020/10/26 00:32:13;;;;;;;1.2;0.9;;;;;;;;;;;;;
2020/10/26 00:34:38;;;;;;;2.3;1.3;;;;;;;;;;;;;
2020/10/26 00:37:03;;;;;;;1.1;0.6;;;;;;;;;;;;;
2020/10/26 00:39:28;;;;;;;0.5;0.5;;;;;;;;;;;;;
2020/10/26 00:41:53;;;;;;;0.9;0.6;;;;;;;;;;;;;
2020/10/26 00:44:19;;;;;;;1;0.8;;;;;;;;;;;;;
2020/10/26 00:46:46;;;;;;;0.4;0.4;;;;;;;;;;;;;
2020/10/26 00:49:09;;;;;;;0.5;0.5;;;;;;;;;;;;;
2020/10/26 00:51:34;;;;;;;1.1;0.7;;;;;;;;;;;;;
2020/10/26 00:53:59;;;;;;;1.2;0.8;;;;;;;;;;;;;
2020/10/26 00:56:25;;;;;;;1.1;0.6;;;;;;;;;;;;;
2020/10/26 00:58:50;;;;;;;0.4;0.4;;;;;;;;;;;;;
2020/10/26 01:01:15;;;;;;;0.6;0.6;;;;;;;;;;;;;
2020/10/26 01:03:40;;;;;;;0.6;0.4;;;;;;;;;;;;;
2020/10/26 01:06:05;;;;;;;0.5;0.5;;;;;;;;;;;;;
2020/10/26 01:08:32;;;;;;;0.7;0.5;;;;;;;;;;;;;
2020/10/26 01:10:57;;;;;;;1;0.6;;;;;;;;;;;;;
2020/10/26 01:13:22;;;;;;;1.2;0.8;;;;;;;;;;;;;
2020/10/26 01:15:47;;;;;;;0.8;0.7;;;;;;;;;;;;;
2020/10/26 01:18:12;;;;;;;2.9;0.6;;;;;;;;;;;;;
2020/10/26 01:20:37;;;;;;;1.3;0.7;;;;;;;;;;;;;
2020/10/26 01:23:02;;;;;;;0.7;0.6;;;;;;;;;;;;;
2020/10/26 01:25:28;;;;;;;0.5;0.4;;;;;;;;;;;;;
2020/10/26 01:27:53;;;;;;;5.1;0.4;;;;;;;;;;;;;
2020/10/26 01:30:23;;;;;;;0.6;0.4;;;;;;;;;;;;;
2020/10/26 01:32:48;;;;;;;2.5;0.8;;;;;;;;;;;;;
2020/10/26 01:35:16;;;;;;;0.7;0.6;;;;;;;;;;;;;
2020/10/26 01:37:43;;;;;;;1;0.5;;;;;;;;;;;;;
2020/10/26 01:40:08;;;;;;;1.7;0.7;;;;;;;;;;;;;
2020/10/26 01:42:33;;;;;;;0.5;0.5;;;;;;;;;;;;;
2020/10/26 01:44:58;;;;;;;1;0.6;;;;;;;;;;;;;
2020/10/26 01:47:23;;;;;;;1.2;0.4;;;;;;;;;;;;;
2020/10/26 01:49:49;;;;;;;0.6;0.6;;;;;;;;;;;;;
2020/10/26 01:52:14;;;;;;;0.8;0.5;;;;;;;;;;;;;
2020/10/26 01:54:40;;;;;;;0.4;0.4;;;;;;;;;;;;;
2020/10/26 01:57:05;;;;;;;2;0.7;;;;;;;;;;;;;
2020/10/26 01:59:30;;;;;;;1.1;0.7;;;;;;;;;;;;;
2020/10/26 02:02:01;;;;;;;0.9;0.6;;;;;;;;;;;;;
2020/10/26 02:04:27;;;;;;;0.4;0.4;;;;;;;;;;;;;
2020/10/26 02:06:52;;;;;;;0.5;0.5;;;;;;;;;;;;;
2020/10/26 02:09:19;;;;;;;0.8;0.6;;;;;;;;;;;;;
2020/10/26 02:11:44;;;;;;;0.3;0.3;;;;;;;;;;;;;
2020/10/26 02:14:09;;;;;;;1.4;0.5;;;;;;;;;;;;;
2020/10/26 02:16:34;;;;;;;0.5;0.5;;;;;;;;;;;;;
2020/10/26 02:19:05;;;;;;;2;0.5;;;;;;;;;;;;;
2020/10/26 02:21:30;;;;;;;1;0.7;;;;;;;;;;;;;
2020/10/26 02:23:59;;;;;;;3.5;0.6;;;;;;;;;;;;;
2020/10/26 02:26:27;;;;;;;1.2;0.5;;;;;;;;;;;;;
2020/10/26 02:28:55;;;;;;;0.9;0.5;;;;;;;;;;;;;
2020/10/26 02:31:28;;;;;;;1.6;0.6;;;;;;;;;;;;;
2020/10/26 02:34:01;;;;;;;0.5;0.5;;;;;;;;;;;;;
2020/10/26 02:36:26;;;;;;;0.6;0.4;;;;;;;;;;;;;
2020/10/26 02:38:51;;;;;;;0.8;0.6;;;;;;;;;;;;;
2020/10/26 02:41:18;;;;;;;0.9;0.5;;;;;;;;;;;;;
2020/10/26 02:43:43;;;;;;;1.6;0.6;;;;;;;;;;;;;
2020/10/26 02:46:10;;;;;;;1.1;0.6;;;;;;;;;;;;;
2020/10/26 02:48:35;;;;;;;1.3;0.7;;;;;;;;;;;;;
2020/10/26 02:51:05;;;;;;;1.4;0.9;;;;;;;;;;;;;
2020/10/26 02:53:31;;;;;;;0.9;0.6;;;;;;;;;;;;;
2020/10/26 02:55:56;;;;;;;0.9;0.6;;;;;;;;;;;;;
2020/10/26 02:58:24;;;;;;;1.3;0.8;;;;;;;;;;;;;
2020/10/26 03:00:51;;;;;;;1.1;0.5;;;;;;;;;;;;;
2020/10/26 03:03:22;;;;;;;0.9;0.7;;;;;;;;;;;;;
2020/10/26 03:05:57;;;;;;;1.1;0.6;;;;;;;;;;;;;
2020/10/26 03:08:23;;;;;;;0.6;0.5;;;;;;;;;;;;;
2020/10/26 03:10:48;;;;;;;0.3;0.3;;;;;;;;;;;;;
2020/10/26 03:13:14;;;;;;;2;0.8;;;;;;;;;;;;;
2020/10/26 03:15:42;;;;;;;0.9;0.4;;;;;;;;;;;;;
2020/10/26 03:18:11;;;;;;;2;0.7;;;;;;;;;;;;;
2020/10/26 03:20:36;;;;;;;0.5;0.5;;;;;;;;;;;;;
2020/10/26 03:23:01;;;;;;;0.4;0.4;;;;;;;;;;;;;
2020/10/26 03:25:27;;;;;;;1.3;0.7;;;;;;;;;;;;;
2020/10/26 03:27:52;;;;;;;0.8;0.3;;;;;;;;;;;;;
2020/10/26 03:30:19;;;;;;;0.5;0.5;;;;;;;;;;;;;
2020/10/26 03:32:45;;;;;;;0.6;0.4;;;;;;;;;;;;;
2020/10/26 03:35:10;;;;;;;0.8;0.6;;;;;;;;;;;;;
2020/10/26 03:37:38;;;;;;;0.7;0.5;;;;;;;;;;;;;
2020/10/26 03:40:03;;;;;;;1;0.6;;;;;;;;;;;;;
2020/10/26 03:42:30;;;;;;;2;0.6;;;;;;;;;;;;;
2020/10/26 03:44:55;;;;;;;0.5;0.4;;;;;;;;;;;;;
2020/10/26 03:47:21;;;;;;;0.7;0.5;;;;;;;;;;;;;
2020/10/26 03:49:46;;;;;;;1.3;0.5;;;;;;;;;;;;;
2020/10/26 03:52:13;;;;;;;0.4;0.3;;;;;;;;;;;;;
2020/10/26 03:54:38;;;;;;;0.4;0.4;;;;;;;;;;;;;
2020/10/26 03:57:08;;;;;;;1;0.7;;;;;;;;;;;;;
2020/10/26 03:59:35;;;;;;;2.2;1.2;;;;;;;;;;;;;
2020/10/26 04:02:42;;;;;;;1.5;0.9;;;;;;;9.02;83.8291;924.5341;;;;
2020/10/26 04:05:06;;;;;;;0.5;0.5;;;;;;;9.1;83.60645;924.4422;;;;
2020/10/26 04:07:36;;;;;;;0.6;0.3;;;;;;;9.1;83.18652;924.454;;;;
2020/10/26 04:10:02;;;;;;;1.2;0.7;;;;;;;9.14;83.18066;924.4609;;;;
2020/10/26 04:12:33;;;;;;;2.2;0.8;;;;;;;9.16;82.66211;924.4425;;;;
2020/10/26 04:15:01;;;;;;;2.6;1;;;;;;;9.16;82.54883;924.5164;;;;
2020/10/26 04:17:28;;;;;;;0.6;0.6;;;;;;;9.11;82.8584;924.377;;;;
2020/10/26 04:19:56;;;;;;;1.8;0.6;;;;;;;8.94;84.05273;924.3527;;;;
2020/10/26 04:22:24;;;;;;;0.9;0.8;;;;;;;8.91;84.04688;924.2567;;;;
2020/10/26 04:24:52;;;;;;;1.2;0.7;;;;;;;8.88;84.00781;924.2839;;;;
2020/10/26 04:27:14;;;;;;;1.8;0.5;;;;;;;8.94;83.91797;924.2486;;;;
2020/10/26 04:29:44;;;;;;;1.3;0.5;;;;;;;8.97;83.64063;924.2293;;;;
2020/10/26 04:32:10;;;;;;;1.3;0.9;;;;;;;8.94;83.63184;924.1724;;;;
2020/10/26 04:34:41;;;;;;;4;1.3;;;;;;;8.91;83.88965;923.9266;;;;
2020/10/26 04:37:12;;;;;;;1.8;1.2;;;;;;;8.92;83.85547;924.0122;;;;
2020/10/26 04:39:43;;;;;;;0.8;0.7;;;;;;;8.91;83.87793;924.0694;;;;
2020/10/26 04:42:14;;;;;;;0.6;0.6;;;;;;;8.92;83.61816;923.9908;;;;
2020/10/26 04:44:39;;;;;;;1.2;0.9;;;;;;;8.93;83.73438;924.0232;;;;
2020/10/26 04:47:04;;;;;;;4;1.1;;;;;;;8.96;83.6123;924.0262;;;;
2020/10/26 04:49:30;;;;;;;2.3;0.9;;;;;;;8.94;83.79102;923.9144;;;;
2020/10/26 04:51:55;;;;;;;1.3;0.7;;;;;;;8.97;83.32227;923.8674;;;;
2020/10/26 04:54:29;;;;;;;2.7;1.1;;;;;;;8.96;83.31836;923.884;;;;
2020/10/26 04:56:59;;;;;;;0.8;0.6;;;;;;;8.85;83.35449;923.9984;;;;
2020/10/26 04:59:28;;;;;;;2.6;1.3;;;;;;;8.66;85.14746;923.848;;;;
2020/10/26 05:01:54;;;;;;;4.9;2;;;;;;;8.76;84.58594;923.6822;;;;
2020/10/26 05:04:24;;;;;;;3.7;1.6;;;;;;;8.68;84.77637;923.8176;;;;
2020/10/26 05:06:55;;;;;;;3.1;1.6;;;;;;;8.76;84.95117;923.8917;;;;
2020/10/26 05:09:24;;;;;;;3.5;1.8;;;;;;;8.71;84.41797;923.7729;;;;
2020/10/26 05:11:52;;;;;;;2.4;1.2;;;;;;;8.59;84.7793;923.7022;;;;
2020/10/26 05:14:17;;;;;;;1.7;0.9;;;;;;;8.62;84.42285;923.5516;;;;
2020/10/26 05:16:43;;;;;;;2.5;1.1;;;;;;;8.74;84.00391;923.6283;;;;
2020/10/26 05:19:08;;;;;;;3.1;1.7;;;;;;;8.84;84.1123;923.5414;;;;
2020/10/26 05:21:53;;;;;;;1.6;1.3;;;;;;;8.89;83.71191;923.4497;;;;
2020/10/26 05:24:30;;;;;;;2.2;1;;;;;;;8.84;83.62598;923.377;;;;
2020/10/26 05:27:04;;;;;;;1.8;1;;;;;;;8.9;83.22656;923.325;;;;
2020/10/26 05:29:40;;;;;;;1.6;1.1;;;;;;;9;83.03125;923.3764;;;;
2020/10/26 05:32:06;;;;;;;1.9;0.7;;;;;;;9.05;82.66309;923.4398;;;;
2020/10/26 05:34:36;;;;;;;3.3;1.4;;;;;;;8.92;82.75195;923.5591;;;;
2020/10/26 05:37:07;;;;;;;0.9;0.8;;;;;;;8.88;82.63184;923.6061;;;;
2020/10/26 05:39:37;;;;;;;1.5;0.9;;;;;;;8.91;82.57813;923.4844;;;;
2020/10/26 05:42:03;;;;;;;2.1;1.1;;;;;;;8.96;82.16895;923.5697;;;;
2020/10/26 05:44:28;;;;;;;1;0.9;;;;;;;8.9;82.40723;923.5273;;;;
2020/10/26 05:46:54;;;;;;;0.7;0.6;;;;;;;8.98;82.10449;923.5664;;;;
2020/10/26 05:49:26;;;;;;;6;1;;;;;;;8.95;80.99609;923.4603;;;;
2020/10/26 05:52:05;;;;;;;1.3;1.1;;;;;;;8.92;81.36621;923.5463;;;;
2020/10/26 05:54:29;;;;;;;1.4;0.9;;;;;;;8.78;82.14648;923.6573;;;;
2020/10/26 05:56:55;;;;;;;4.6;1.3;;;;;;;8.76;82.35938;923.6544;;;;
2020/10/26 05:59:20;;;;;;;1.7;1.2;;;;;;;8.79;82.53516;923.6795;;;;
2020/10/26 06:01:56;;;;;;;3.6;1.8;;;;;;;8.65;83.04102;923.7496;;;;
2020/10/26 06:04:31;;;;;;;1.7;1.3;;;;;;;8.72;82.92871;923.5634;;;;
2020/10/26 06:06:56;;;;;;;1.3;0.9;;;;;;;8.71;82.89258;923.5612;;;;
2020/10/26 06:09:21;;;;;;;2.1;1.3;;;;;;;8.77;82.91797;923.5884;;;;
2020/10/26 06:11:49;;;;;;;1.3;1;;;;;;;8.82;82.92871;923.6169;;;;
2020/10/26 06:14:19;;;;;;;1.8;1.1;;;;;;;8.92;82.46973;923.6772;;;;
2020/10/26 06:16:55;;;;;;;2;1.3;;;;;;;8.94;82.59668;923.7723;;;;
2020/10/26 06:19:28;;;;;;;1.8;1.2;;;;;;;8.94;82.5166;923.7891;;;;
2020/10/26 06:22:01;;;;;;;1.6;0.9;;;;;;;8.97;82.4668;923.7649;;;;
2020/10/26 06:24:25;;;;;;;1.7;1.2;;;;;;;9.06;82.00488;923.6749;;;;
2020/10/26 06:26:55;;;;;;;2.2;1.1;;;;;;;9.02;82.32715;923.772;;;;
2020/10/26 06:29:22;;;;;;;2.2;1.5;;;;;;;9.03;82.25098;923.8195;;;;
2020/10/26 06:31:47;;;;;;;2.3;1.8;;;;;;;9.14;81.81641;923.9361;;;;
2020/10/26 06:34:16;;;;;;;2.6;1.4;;;;;;;9.26;81.20117;924.0283;;;;
2020/10/26 06:36:41;;;;;;;2.6;1.2;;;;;;;9.31;81.10938;924.0659;;;;
2020/10/26 06:39:12;;;;;;;2.2;1.3;;;;;;;9.26;80.90527;924.1522;;;;
2020/10/26 06:41:38;;;;;;;1.7;1.1;;;;;;;9.23;79.95605;924.1889;;;;
2020/10/26 06:44:03;;;;;;;4.4;2.1;;;;;;;9.02;81.25781;924.2388;;;;
2020/10/26 06:46:33;;;;;;;2.9;2.1;;;;;;;8.82;82.72363;924.3098;;;;
2020/10/26 06:48:58;;;;;;;4;2.6;;;;;;;8.8;83.46875;924.289;;;;
2020/10/26 06:51:24;;;;;;;4.9;2.5;;;;;;;9.05;82.86719;924.2687;;;;
2020/10/26 06:53:48;;;;;;;3.3;1.5;;;;;;;9.14;82.5;924.3489;;;;
2020/10/26 06:56:14;;;;;;;2.1;1.2;;;;;;;9.28;81.72852;924.4697;;;;
2020/10/26 06:58:41;;;;;;;0.8;0.6;;;;;;;9.37;81.2334;924.577;;;;
2020/10/26 07:01:06;;;;;;;1.6;0.9;;;;;;;9.52;80.84082;924.5966;;;;
2020/10/26 07:03:40;;;;;;;1.7;0.8;;;;;;;9.68;80.27734;924.5947;;;;
2020/10/26 07:06:17;;;;;;;1.3;0.6;;;;;;;9.92;79.50195;924.5917;;;;
2020/10/26 07:08:47;;;;;;;0.7;0.4;;;;;;;10.18;78.5332;924.7498;;;;
2020/10/26 07:11:12;;;;;;;0.3;0.3;;;;;;;10.49;77.31348;924.7781;;;;
2020/10/26 07:13:37;;;;;;;0.8;0.6;;;;;;;10.71;76.20996;924.8505;;;;
2020/10/26 07:16:04;;;;;;;0.9;0.5;;;;;;;10.89;74.21875;924.8236;;;;
2020/10/26 07:18:29;;;;;;;0.7;0.5;;;;;;;11.26;74.01758;925.0309;;;;
2020/10/26 07:21:02;;;;;;;0.5;0.3;;;;;;;11.51;72.05957;925.1277;;;;
2020/10/26 07:23:36;;;;;;;0.8;0.4;;;;;;;11.66;70.36523;925.1824;;;;
2020/10/26 07:26:05;;;;;;;0.2;0.2;;;;;;;11.84;69.85645;925.1337;;;;
2020/10/26 07:28:30;;;;;;;0.4;0.4;;;;;;;12.07;69.16113;925.11;;;;
2020/10/26 07:31:15;;;;;;;0.6;0.4;;;;;;;12.28;67.92188;925.1058;;;;
2020/10/26 07:33:46;;;;;;;0.7;0.4;;;;;;;12.3;66.8125;925.0927;;;;
2020/10/26 07:36:14;;;;;;;1.5;0.5;;;;;;;12.58;67.10938;925.1012;;;;
2020/10/26 07:38:45;;;;;;;1.8;0.7;;;;;;;12.56;65.91309;925.2605;;;;
2020/10/26 07:41:17;;;;;;;0.5;0.4;;;;;;;13.3;64.1748;925.3483;;;;
2020/10/26 07:43:45;;;;;;;0.2;0.2;;;;;;;13.85;61.96777;925.4651;;;;
2020/10/26 07:46:14;;;;;;;0.3;0.3;;;;;;;14.54;61.30469;925.5148;;;;
2020/10/26 07:48:40;;;;;;;0.7;0.3;;;;;;;15.27;58.5791;925.6257;;;;
2020/10/26 07:51:06;;;;;;;1.1;0.7;;;;;;;16.14;55.26074;925.5733;;;;
2020/10/26 07:53:38;;;;;;;0.3;0.2;;;;;;;16.3;53.30176;925.6102;;;;
2020/10/26 07:56:06;;;;;;;0.4;0.2;;;;;;;17.18;50.62695;925.6558;;;;
2020/10/26 07:58:33;;;;;;;0.5;0.5;;;;;;;17.5;49.53809;925.545;;;;
2020/10/26 08:00:58;;;;;;;0.2;0.2;;;;;;;18.7;47.38281;925.5858;;;;
2020/10/26 08:03:33;;;;;;;0.4;0.4;;;;;;;19.14;45.2627;925.4747;;;;
2020/10/26 08:06:09;;;;;;;0.2;0.2;;;;;;;18.92;45.18262;925.5388;;;;
2020/10/26 08:08:39;;;;;;;0.8;0.7;;;;;;;18.81;46.06738;925.6116;;;;
2020/10/26 08:11:06;;;;;;;0.2;0.2;;;;;;;18.75;46.43359;925.6958;;;;
2020/10/26 08:13:31;;;;;;;0.4;0.2;;;;;;;17.68;48.35156;925.7149;;;;
2020/10/26 08:16:04;;;;;;;0.4;0.2;;;;;;;16.89;50.44238;925.7028;;;;
2020/10/26 08:18:29;;;;;;;0.5;0.4;;;;;;;16.96;50.91309;925.7922;;;;
2020/10/26 08:21:04;;;;;;;1.1;0.4;;;;;;;16.5;52.42383;925.7828;;;;
2020/10/26 08:23:32;;;;;;;1;0.6;;;;;;;16.08;53.95703;925.8056;;;;
2020/10/26 08:26:05;;;;;;;0.9;0.4;;;;;;;15.75;54.41406;925.7975;;;;
2020/10/26 08:28:31;;;;;;;1.7;0.9;;;;;;;15.74;55.25488;925.8092;;;;
2020/10/26 08:30:58;;;;;;;0.5;0.3;;;;;;;15.73;55.77441;925.7767;;;;
2020/10/26 08:33:23;;;;;;;1.3;0.3;;;;;;;15.89;55.02148;925.7461;;;;
2020/10/26 08:35:50;;;;;;;0.6;0.3;;;;;;;15.74;56.22754;925.7818;;;;
2020/10/26 08:38:19;;;;;;;0.6;0.4;;;;;;;16.01;56.74609;925.725;;;;
2020/10/26 08:40:44;;;;;;;18.9;1;;;;;;;16.25;54.71973;925.5906;;;;
2020/10/26 08:43:11;;;;;;;0.2;0.2;;;;;;;16.54;54.58105;925.5815;;;;
2020/10/26 08:45:45;;;;;;;2.4;0.8;;;;;;;16.88;53.16406;925.7844;;;;
2020/10/26 08:48:13;;;;;;;0.8;0.5;;;;;;;16.54;53.7373;925.7156;;;;
2020/10/26 08:50:39;;;;;;;0.5;0.5;;;;;;;16.48;54.48047;925.8014;;;;
2020/10/26 08:53:04;;;;;;;0.3;0.3;;;;;;;16.45;54.95215;925.8778;;;;
2020/10/26 08:55:29;;;;;;;0.6;0.6;;;;;;;16.37;54.83887;925.8542;;;;
2020/10/26 08:58:00;;;;;;;0.2;0.2;;;;;;;16.34;54.34863;925.9109;;;;
2020/10/26 09:00:41;;;;;;;1;0.5;;;;;;;16.3;55.55859;925.9529;;;;
2020/10/26 09:03:09;;;;;;;1;0.5;;;;;;;16.59;54.15918;926.1061;;;;
2020/10/26 09:05:38;;;;;;;0.6;0.5;;;;;;;16.86;53.9834;926.0778;;;;
2020/10/26 09:08:08;;;;;;;0.4;0.3;;;;;;;17.22;53.04199;925.8968;;;;
2020/10/26 09:10:33;;;;;;;0.4;0.3;;;;;;;16.97;53.82422;925.8996;;;;
2020/10/26 09:13:01;;;;;;;1.1;0.6;;;;;;;16.67;53.48633;925.9562;;;;
2020/10/26 09:15:32;;;;;;;0.5;0.5;;;;;;;16.54;54.16602;925.8995;;;;
2020/10/26 09:17:57;;;;;;;0.5;0.5;;;;;;;16.07;55.8877;925.6252;;;;
2020/10/26 09:20:27;;;;;;;1.7;0.4;;;;;;;15.71;58.77637;925.6825;;;;
2020/10/26 09:22:52;;;;;;;1.8;0.9;;;;;;;15.57;58.3418;925.649;;;;
2020/10/26 09:25:19;;;;;;;1.5;0.7;;;;;;;15.5;59.04785;925.5247;;;;
2020/10/26 09:27:48;;;;;;;0.7;0.6;;;;;;;15.4;60.47852;925.6493;;;;
2020/10/26 09:30:28;;;;;;;1.3;0.8;;;;;;;15.3;59.8877;925.6096;;;;
2020/10/26 09:32:47;;;;;;;1;0.8;;;;;;;15.03;61.60352;925.7229;;;;
2020/10/26 09:35:14;;;;;;;0.9;0.6;;;;;;;14.91;62.70605;925.7026;;;;
2020/10/26 09:37:39;;;;;;;1.1;0.8;;;;;;;14.64;63.76172;925.688;;;;
2020/10/26 09:40:16;;;;;;;1.9;1.1;;;;;;;14.4;64.69531;925.7156;;;;
2020/10/26 09:42:46;;;;;;;1.6;0.8;;;;;;;14.2;65.71191;925.6339;;;;
2020/10/26 09:45:11;;;;;;;0.8;0.7;;;;;;;14.12;65.91992;925.6494;;;;
2020/10/26 09:47:41;;;;;;;1;0.5;;;;;;;13.88;65.70898;925.6847;;;;
2020/10/26 09:50:15;;;;;;;1.6;0.8;;;;;;;13.67;66.31055;925.7059;;;;
2020/10/26 09:52:40;;;;;;;1.1;0.9;;;;;;;13.53;66.96875;925.7344;;;;
2020/10/26 09:55:14;;;;;;;0.4;0.4;;;;;;;13.47;66.90137;925.7245;;;;
2020/10/26 09:57:42;;;;;;;0.8;0.6;;;;;;;13.43;67.9873;925.7479;;;;
2020/10/26 10:00:07;;;;;;;1.2;0.7;;;;;;;13.4;67.65039;925.7681;;;;
2020/10/26 10:02:32;;;;;;;0.4;0.4;;;;;;;13.29;68.10254;925.8232;;;;
2020/10/26 10:05:01;;;;;;;0.5;0.4;;;;;;;13.18;67.14355;925.7797;;;;
2020/10/26 10:07:26;;;;;;;0.2;0.2;;;;;;;13.04;67.80078;925.7791;;;;
2020/10/26 10:09:54;;;;;;;0;0;;;;;;;12.88;67.52246;925.718;;;;
2020/10/26 10:12:20;;;;;;;0.1;0.1;;;;;;;12.85;66.50781;925.6803;;;;
2020/10/26 10:14:48;;;;;;;0.2;0.1;;;;;;;12.77;67.12695;925.5298;;;;
2020/10/26 10:17:17;;;;;;;0.1;0.1;;;;;;;12.53;67.8125;925.3081;;;;
2020/10/26 10:19:42;;;;;;;0.4;0.3;;;;;;;12.27;68.20703;925.402;;;;
2020/10/26 10:22:12;;;;;;;0.5;0.2;;;;;;;12.23;67.9834;925.7388;;;;
2020/10/26 10:24:37;;;;;;;0.1;0.1;;;;;;;12.16;68.55664;925.9423;;;;
2020/10/26 10:27:02;;;;;;;0.3;0.1;;;;;;;12.08;68.14355;926.0219;;;;
2020/10/26 10:29:31;;;;;;;0.2;0.1;;;;;;;11.92;68.42676;926.009;;;;
2020/10/26 10:31:56;;;;;;;0.2;0.1;;;;;;;11.82;68.63965;926.0289;;;;
2020/10/26 10:34:25;;;;;;;3.7;0.1;;;;;;;11.77;69.7207;925.9891;;;;
2020/10/26 10:36:54;;;;;;;0.1;0.1;;;;;;;11.62;69.01074;925.8646;;;;
2020/10/26 10:39:23;;;;;;;0.6;0.1;;;;;;;11.55;69.36523;926.0056;;;;
2020/10/26 10:41:54;;;;;;;0.2;0.1;;;;;;;11.5;70.5918;926.1434;;;;
2020/10/26 10:44:27;;;;;;;0.2;0.2;;;;;;;11.47;70.57617;926.1725;;;;
2020/10/26 10:46:52;;;;;;;0.2;0.2;;;;;;;11.58;69.2207;926.1462;;;;
2020/10/26 10:49:23;;;;;;;0.1;0.1;;;;;;;11.49;69.44629;926.1197;;;;
2020/10/26 10:51:48;;;;;;;0.1;0.1;;;;;;;11.41;69.82227;926.2615;;;;
2020/10/26 10:54:18;;;;;;;0.4;0.3;;;;;;;11.24;70.20801;926.3419;;;;
2020/10/26 10:56:44;;;;;;;0;0;;;;;;;11.1;71.0293;926.411;;;;
2020/10/26 10:59:10;;;;;;;0.1;0;;;;;;;11.06;72.09961;926.4752;;;;
2020/10/26 11:01:36;;;;;;;0.5;0.3;;;;;;;10.98;71.66309;926.5172;;;;
2020/10/26 11:04:07;;;;;;;0.9;0.7;;;;;;;10.98;72.81543;926.6838;;;;
2020/10/26 11:06:32;;;;;;;0.4;0.3;;;;;;;10.85;74.56543;926.7026;;;;
2020/10/26 11:09:02;;;;;;;0.4;0.3;;;;;;;10.86;74.50977;926.8491;;;;
2020/10/26 11:11:27;;;;;;;0.4;0.4;;;;;;;10.88;74.8457;926.8233;;;;
2020/10/26 11:13:56;;;;;;;0.6;0.4;;;;;;;10.83;75.11035;926.8326;;;;
2020/10/26 11:16:21;;;;;;;0.6;0.3;;;;;;;10.68;76.3418;926.9277;;;;
2020/10/26 11:18:51;;;;;;;0.2;0.2;;;;;;;10.69;77.11914;927.0494;;;;
2020/10/26 11:21:16;;;;;;;0.3;0.3;;;;;;;10.63;76.65234;927.0986;;;;
2020/10/26 11:23:45;;;;;;;0.5;0.5;;;;;;;10.73;77.02539;926.9822;;;;
2020/10/26 11:26:13;;;;;;;0.6;0.4;;;;;;;10.65;77.68359;927.0331;;;;
2020/10/26 11:28:38;;;;;;;1.3;0.8;;;;;;;10.66;77.81055;927.0871;;;;
2020/10/26 11:31:07;;;;;;;0.2;0.2;;;;;;;10.76;77.70313;927.0957;;;;
2020/10/26 11:33:37;;;;;;;0.5;0.5;;;;;;;10.79;76.58789;927.0923;;;;
2020/10/26 11:36:06;;;;;;;0.4;0.3;;;;;;;10.71;78.15137;927.0477;;;;
2020/10/26 11:38:36;;;;;;;0.3;0.2;;;;;;;10.74;77.92773;927.1906;;;;
2020/10/26 11:41:01;;;;;;;0.4;0.2;;;;;;;10.82;77.4502;927.1696;;;;
2020/10/26 11:43:26;;;;;;;0.4;0.4;;;;;;;10.96;77.33984;927.1792;;;;
2020/10/26 11:45:57;;;;;;;0.6;0.4;;;;;;;11.17;77.45605;927.1255;;;;
2020/10/26 11:48:27;;;;;;;0.4;0.4;;;;;;;10.95;78.2168;927.0711;;;;
2020/10/26 11:50:52;;;;;;;0.5;0.4;;;;;;;11.05;77.69727;927.1054;;;;
2020/10/26 11:53:19;;;;;;;1.3;0.8;;;;;;;11.09;76.64258;927.1742;;;;
2020/10/26 11:55:56;;;;;;;1.7;0.9;;;;;;;10.94;77.19824;927.2416;;;;
2020/10/26 11:58:24;;;;;;;2.6;1.1;;;;;;;10.76;79.2793;927.282;;;;
2020/10/26 12:00:55;;;;;;;1.2;0.8;;;;;;;10.69;79.16309;927.2636;;;;
2020/10/26 12:03:20;;;;;;;0.4;0.4;;;;;;;10.5;79.63281;927.335;;;;
2020/10/26 12:05:53;;;;;;;1.1;0.8;;;;;;;10.28;80.05859;927.3746;;;;
2020/10/26 12:08:23;;;;;;;1.3;0.3;;;;;;;10.36;80.17676;927.4169;;;;
2020/10/26 12:10:46;;;;;;;0.7;0.3;;;;;;;10.39;78.69727;927.4549;;;;
2020/10/26 12:13:13;;;;;;;0.7;0.4;;;;;;;10.2;79.31348;927.4207;;;;
2020/10/26 12:15:39;;;;;;;12.4;5.6;;;;;;;10.25;80.56738;927.5363;;;;
2020/10/26 12:18:07;;;;;;;2.4;1.6;;;;;;;10.42;81.22559;927.5195;;;;
2020/10/26 12:20:32;;;;;;;1.6;0.5;;;;;;;10.39;80.4668;927.6244;;;;
2020/10/26 12:22:57;;;;;;;0.7;0.5;;;;;;;10.45;79.74805;927.6688;;;;
2020/10/26 12:25:24;;;;;;;0.3;0.3;;;;;;;10.3;79.66406;927.6528;;;;
2020/10/26 12:27:49;;;;;;;0.7;0.5;;;;;;;10.15;79.94434;927.6891;;;;
2020/10/26 12:30:24;;;;;;;1.4;0.5;;;;;;;10.19;79.73535;927.7477;;;;
2020/10/26 12:32:49;;;;;;;0.6;0.5;;;;;;;10.38;80.11133;927.7668;;;;
2020/10/26 12:35:16;;;;;;;0.6;0.4;;;;;;;10.23;79.71777;927.7386;;;;
2020/10/26 12:37:42;;;;;;;0.5;0.5;;;;;;;10.11;80.28906;927.7808;;;;
2020/10/26 12:40:07;;;;;;;0.2;0.2;;;;;;;9.95;80.69238;927.7623;;;;
2020/10/26 12:42:36;;;;;;;0.4;0.2;;;;;;;9.98;81.13281;927.7748;;;;
2020/10/26 12:45:01;;;;;;;0.2;0.1;;;;;;;9.87;80.96387;927.8065;;;;
2020/10/26 12:47:29;;;;;;;0.3;0.3;;;;;;;9.84;81.88086;927.8345;;;;
2020/10/26 12:49:54;;;;;;;0.7;0.3;;;;;;;9.9;81.71973;927.9288;;;;
2020/10/26 12:52:19;;;;;;;0.6;0.2;;;;;;;9.71;83.13281;927.9183;;;;
2020/10/26 12:54:51;;;;;;;0.7;0.5;;;;;;;9.78;83.4541;927.9863;;;;
2020/10/26 12:57:16;;;;;;;0.6;0.2;;;;;;;9.81;82.90137;928.0262;;;;
2020/10/26 12:59:41;;;;;;;0.2;0.2;;;;;;;9.6;83.73828;928.0432;;;;
2020/10/26 13:02:06;;;;;;;0;0;;;;;;;9.92;83.38965;928.1664;;;;
2020/10/26 13:04:31;;;;;;;0.1;0.1;;;;;;;9.89;82.62012;928.2437;;;;
2020/10/26 13:06:56;;;;;;;0.7;0.2;;;;;;;9.88;82.05859;928.1603;;;;
2020/10/26 13:09:23;;;;;;;0.2;0.2;;;;;;;9.91;81.80273;928.3183;;;;
2020/10/26 13:11:48;;;;;;;0.3;0.3;;;;;;;10.01;81.32031;928.3457;;;;
2020/10/26 13:14:15;;;;;;;0.3;0.3;;;;;;;10;81.79688;928.3625;;;;
2020/10/26 13:16:40;;;;;;;0.1;0.1;;;;;;;9.92;80.97266;928.3334;;;;
2020/10/26 13:19:09;;;;;;;0.6;0.2;;;;;;;9.87;80.83691;928.3956;;;;
2020/10/26 13:21:34;;;;;;;2.1;1.1;;;;;;;9.69;82.62793;928.5248;;;;
2020/10/26 13:24:00;;;;;;;2.3;0.9;;;;;;;9.36;83.37207;928.5211;;;;
2020/10/26 13:26:25;;;;;;;1.1;0.8;;;;;;;9.42;83.24805;928.5379;;;;
2020/10/26 13:28:52;;;;;;;2;1.3;;;;;;;9.39;82.99023;928.5814;;;;
2020/10/26 13:31:17;;;;;;;0.9;0.5;;;;;;;9.29;82.05078;928.6245;;;;
2020/10/26 13:33:44;;;;;;;0.3;0.3;;;;;;;9.21;81.74902;928.5142;;;;
2020/10/26 13:36:10;;;;;;;1.2;0.5;;;;;;;9.49;81.41504;928.4551;;;;
2020/10/26 13:38:36;;;;;;;0.3;0.2;;;;;;;9.35;81.46875;928.5854;;;;
2020/10/26 13:41:01;;;;;;;0.4;0.2;;;;;;;9.27;82.43262;928.6594;;;;
2020/10/26 13:43:27;;;;;;;0.3;0.3;;;;;;;9.4;80.77344;928.6227;;;;
2020/10/26 13:45:52;;;;;;;0.6;0.5;;;;;;;9.26;81.06543;928.5943;;;;
2020/10/26 13:48:21;;;;;;;0.3;0.3;;;;;;;9.32;81.51953;928.6808;;;;
2020/10/26 13:50:46;;;;;;;0.4;0.4;;;;;;;9.38;81.00879;928.6608;;;;
2020/10/26 13:53:13;;;;;;;0.4;0.3;;;;;;;9.48;80.89063;928.8088;;;;
2020/10/26 13:55:39;;;;;;;0.5;0.4;;;;;;;9.27;81.68164;928.7659;;;;
2020/10/26 13:58:05;;;;;;;0.3;0.3;;;;;;;9.35;81.69727;928.8031;;;;
2020/10/26 14:00:35;;;;;;;0.3;0.2;;;;;;;9.08;81.94141;928.9238;;;;
2020/10/26 14:03:00;;;;;;;0.4;0.2;;;;;;;9;82.91797;928.9807;;;;
2020/10/26 14:05:34;;;;;;;0.3;0.3;;;;;;;9.1;82.6748;928.9881;;;;
2020/10/26 14:08:03;;;;;;;0.7;0.3;;;;;;;9.18;81.99414;929.0222;;;;
2020/10/26 14:10:28;;;;;;;0.2;0.2;;;;;;;9.14;81.70313;929.0754;;;;
2020/10/26 14:12:54;;;;;;;0.3;0.3;;;;;;;9.03;82.54688;929.1572;;;;
2020/10/26 14:15:23;;;;;;;0.3;0.3;;;;;;;8.99;82.24414;929.153;;;;
2020/10/26 14:17:52;;;;;;;0.6;0.3;;;;;;;9.03;81.80762;929.1461;;;;
2020/10/26 14:20:23;;;;;;;0.3;0.3;;;;;;;8.96;81.40723;929.1513;;;;
2020/10/26 14:22:51;;;;;;;0.2;0.2;;;;;;;8.93;81.61621;929.1203;;;;
2020/10/26 14:25:19;;;;;;;0.8;0.6;;;;;;;8.9;81.89551;929.1347;;;;
2020/10/26 14:27:46;;;;;;;0.7;0.3;;;;;;;8.89;81.96191;929.2004;;;;
2020/10/26 14:30:08;;;;;;;0.9;0.5;;;;;;;8.71;81.2002;929.2786;;;;
2020/10/26 14:32:36;;;;;;;1.2;0.4;;;;;;;8.64;82.0166;929.3555;;;;
2020/10/26 14:35:01;;;;;;;0.7;0.4;;;;;;;8.7;81.16406;929.2539;;;;
2020/10/26 14:37:26;;;;;;;1.1;0.4;;;;;;;8.63;81.18457;929.2712;;;;
2020/10/26 14:39:51;;;;;;;0.4;0.4;;;;;;;8.71;81.23438;929.2817;;;;
2020/10/26 14:42:18;;;;;;;1;0.7;;;;;;;8.78;81.17773;929.3597;;;;
2020/10/26 14:44:42;;;;;;;0.2;0.2;;;;;;;8.65;81.06348;929.5514;;;;
2020/10/26 14:47:09;;;;;;;0.4;0.3;;;;;;;8.66;80.89453;929.6125;;;;
2020/10/26 14:49:37;;;;;;;0.5;0.5;;;;;;;8.57;81.33398;929.6041;;;;
2020/10/26 14:52:02;;;;;;;0.4;0.3;;;;;;;8.36;81.01074;929.6088;;;;
2020/10/26 14:54:37;;;;;;;0.3;0.3;;;;;;;8.34;82.23242;929.684;;;;
2020/10/26 14:57:01;;;;;;;0.6;0.4;;;;;;;8.33;82.17188;929.7003;;;;
2020/10/26 14:59:28;;;;;;;0.4;0.4;;;;;;;8.26;82.39844;929.7183;;;;
2020/10/26 15:01:53;;;;;;;0.2;0.2;;;;;;;8.14;82.47852;929.7048;;;;
2020/10/26 15:04:22;;;;;;;1.5;0.4;;;;;;;8.01;82.81738;929.6883;;;;
2020/10/26 15:06:47;;;;;;;2.2;1.1;;;;;;;;;;;;;
2020/10/26 15:09:12;;;;;;;8;2.6;;;;;;;;;;;;;
2020/10/26 15:11:37;;;;;;;1.1;0.7;;;;;;;;;;;;;
2020/10/26 15:14:02;;;;;;;1.6;0.4;;;;;;;;;;;;;
2020/10/26 15:16:28;;;;;;;0.5;0.4;;;;;;;;;;;;;
2020/10/26 15:18:54;;;;;;;0.5;0.4;;;;;;;;;;;;;
2020/10/26 15:21:19;;;;;;;0.2;0.2;;;;;;;;;;;;;
2020/10/26 15:23:45;;;;;;;0.7;0.4;;;;;;;;;;;;;
2020/10/26 15:26:10;;;;;;;0.8;0.5;;;;;;;;;;;;;
2020/10/26 15:28:36;;;;;;;1.5;0.5;;;;;;;;;;;;;
2020/10/26 15:31:01;;;;;;;1;0.4;;;;;;;;;;;;;
2020/10/26 15:33:28;;;;;;;0.3;0.3;;;;;;;;;;;;;
2020/10/26 15:35:53;;;;;;;0.5;0.3;;;;;;;;;;;;;
2020/10/26 15:38:19;;;;;;;0.6;0.6;;;;;;;;;;;;;
2020/10/26 15:40:44;;;;;;;0.4;0.4;;;;;;;;;;;;;
2020/10/26 15:43:10;;;;;;;0.5;0.5;;;;;;;;;;;;;
2020/10/26 15:45:36;;;;;;;0.8;0.6;;;;;;;;;;;;;
2020/10/26 15:48:02;;;;;;;0.8;0.5;;;;;;;;;;;;;
2020/10/26 15:50:27;;;;;;;0.8;0.7;;;;;;;;;;;;;
2020/10/26 15:52:52;;;;;;;2.4;0.7;;;;;;;;;;;;;
2020/10/26 15:55:18;;;;;;;1.1;0.5;;;;;;;;;;;;;
2020/10/26 15:57:44;;;;;;;1.5;0.6;;;;;;;;;;;;;
2020/10/26 16:00:09;;;;;;;0.6;0.6;;;;;;;;;;;;;
2020/10/26 16:02:36;;;;;;;0.6;0.4;;;;;;;;;;;;;